Shilong, China
Current Conditions -  °F | °C
As of 10:00 PM on Friday 28 Nov 2014 (Local Time) from ZGSZ Reporting Station
Broken Clouds Broken Clouds  
Wind Chill: 75°   Ceiling: 4000
Heat Index: 75°   Visibility: 4mi
Dew Point: 72°   Wind: 4mph
Humidity: 89%   Direction: 200°SSW
Pressure: 29.94"   Gusts: NA
Location:  23.11°N, 113.83°E
Report Text: ZGSZ 281400Z 20002MPS 7000 FEW026 BKN040 24/22 Q1014 NOSIG
Loading
Personal Weather Stations






























Interactive Weather Map New forecast layout! Learn more

10-Day Weather Forecast

Advertisements
Track Severe Weather on mobile